Time;durP1;ratioP1;P1;durP2;ratioP2;P2;SDS_P1;SDS_P2;PMS_P1;PMS_P2;Temp;Humidity;BMP_temperature;BMP_pressure;BME280_temperature;BME280_humidity;BME280_pressure;Samples;Min_cycle;Max_cycle;Signal;HPM_P1;HPM_P2
2023/02/24 00:02:24;;;;;;;18.77;5.57;;;;;;;5.33;100.00;101521.50;5233370;28;20384;-76
2023/02/24 00:04:55;;;;;;;17.70;4.82;;;;;;;5.27;100.00;101510.63;5235561;28;20025;-75
2023/02/24 00:07:28;;;;;;;20.65;4.53;;;;;;;5.26;100.00;101517.53;5229980;28;20029;-75
2023/02/24 00:10:01;;;;;;;18.40;5.38;;;;;;;5.30;100.00;101523.41;5215772;28;20021;-75
2023/02/24 00:12:33;;;;;;;21.48;4.63;;;;;;;5.28;100.00;101518.31;5234972;28;20052;-75
2023/02/24 00:15:04;;;;;;;17.45;4.70;;;;;;;5.24;100.00;101509.00;5235624;28;20060;-74
2023/02/24 00:17:37;;;;;;;17.50;4.72;;;;;;;5.28;100.00;101507.09;5235573;28;20025;-75
2023/02/24 00:20:12;;;;;;;16.02;4.43;;;;;;;5.32;100.00;101508.59;5232346;28;20100;-75
2023/02/24 00:22:44;;;;;;;20.38;4.82;;;;;;;5.40;100.00;101508.19;5233984;28;20100;-75
2023/02/24 00:25:15;;;;;;;18.77;4.78;;;;;;;5.40;100.00;101503.00;5232008;28;20023;-75
2023/02/24 00:27:46;;;;;;;19.27;5.25;;;;;;;5.36;100.00;101502.31;5215297;28;20460;-75
2023/02/24 00:30:20;;;;;;;17.02;4.72;;;;;;;5.33;100.00;101489.50;5213254;28;20056;-75
2023/02/24 00:32:51;;;;;;;;;;;;;;;6.09;100.00;101505.34;5231172;28;20108;-74
2023/02/24 00:35:22;;;;;;;18.47;4.87;;;;;;;5.51;100.00;101501.50;5232138;28;20015;-75
2023/02/24 00:37:54;;;;;;;12.85;3.78;;;;;;;5.47;100.00;101497.41;5213509;28;20040;-75
2023/02/24 00:40:25;;;;;;;16.98;4.47;;;;;;;5.54;100.00;101485.75;5230725;28;20135;-75
2023/02/24 00:42:56;;;;;;;22.30;6.63;;;;;;;5.48;100.00;101491.28;5234431;28;20550;-75
2023/02/24 00:45:29;;;;;;;19.05;5.07;;;;;;;5.56;100.00;101489.09;5233348;28;20076;-75
2023/02/24 00:48:03;;;;;;;19.15;4.90;;;;;;;5.54;100.00;101490.97;5232942;28;20029;-75
2023/02/24 00:50:35;;;;;;;24.38;4.47;;;;;;;5.55;100.00;101490.03;5230930;28;20048;-75
2023/02/24 00:53:06;;;;;;;19.17;4.32;;;;;;;5.48;100.00;101477.44;5232608;28;20057;-75
2023/02/24 00:55:37;;;;;;;18.10;3.25;;;;;;;5.48;100.00;101475.69;5233803;28;20087;-75
2023/02/24 00:58:08;;;;;;;19.23;5.05;;;;;;;5.51;100.00;101472.09;5232282;28;20433;-74
2023/02/24 01:00:42;;;;;;;22.25;4.68;;;;;;;5.48;100.00;101470.50;5234536;28;20029;-75
2023/02/24 01:03:13;;;;;;;;;;;;;;;6.22;100.00;101469.94;5232125;28;20510;-75
2023/02/24 01:05:44;;;;;;;17.77;5.05;;;;;;;5.60;100.00;101474.19;5223863;28;19917;-74
2023/02/24 01:08:20;;;;;;;13.20;4.25;;;;;;;5.48;100.00;101464.47;5232783;28;20029;-75
2023/02/24 01:13:48;;;;;;;17.13;4.40;;;;;;;5.40;100.00;101457.06;5228731;28;20506;-75
2023/02/24 01:16:19;;;;;;;14.50;3.97;;;;;;;5.44;100.00;101455.97;5234781;28;20037;-74
2023/02/24 01:18:51;;;;;;;13.68;4.13;;;;;;;5.44;100.00;101448.19;5232364;28;20017;-74
2023/02/24 01:21:22;;;;;;;17.15;4.32;;;;;;;5.39;100.00;101445.00;5213795;28;20025;-75
2023/02/24 01:23:54;;;;;;;11.98;3.28;;;;;;;5.40;100.00;101444.06;5230924;28;20116;-75
2023/02/24 01:26:26;;;;;;;14.18;3.92;;;;;;;5.44;100.00;101450.78;5214887;28;20482;-75
2023/02/24 01:28:57;;;;;;;22.52;4.15;;;;;;;5.50;100.00;101434.88;5230851;28;20033;-75
2023/02/24 01:31:28;;;;;;;18.55;4.60;;;;;;;5.60;100.00;101443.81;5214155;28;20125;-74
2023/02/24 01:34:04;;;;;;;14.82;4.72;;;;;;;5.58;100.00;101434.47;5231945;28;20385;-74
2023/02/24 01:36:37;;;;;;;16.50;4.13;;;;;;;5.59;100.00;101426.56;5219587;28;20037;-74
2023/02/24 01:39:11;;;;;;;13.18;3.90;;;;;;;5.58;100.00;101414.50;5231922;28;20029;-75
2023/02/24 01:41:44;;;;;;;16.90;4.05;;;;;;;5.61;100.00;101422.13;5230540;28;20095;-74
2023/02/24 01:44:16;;;;;;;14.32;3.60;;;;;;;5.69;100.00;101418.28;5232801;28;20187;-74
2023/02/24 01:46:51;;;;;;;16.05;3.90;;;;;;;5.81;100.00;101410.63;5215353;28;20030;-75
2023/02/24 01:49:33;;;;;;;18.15;4.75;;;;;;;5.91;100.00;101412.69;5231080;28;20033;-75
2023/02/24 01:52:12;;;;;;;16.20;4.43;;;;;;;5.89;100.00;101405.00;5230232;28;20049;-75
2023/02/24 01:55:00;;;;;;;18.35;4.63;;;;;;;5.80;100.00;101397.72;5214759;28;20057;-74
2023/02/24 01:57:34;;;;;;;15.35;3.90;;;;;;;5.64;100.00;101378.69;5232183;28;20065;-75
2023/02/24 02:00:10;;;;;;;14.18;4.50;;;;;;;5.66;100.00;101377.69;5231055;28;20044;-75
2023/02/24 02:02:46;;;;;;;12.48;3.20;;;;;;;5.75;100.00;101386.72;5229296;28;20447;-75
2023/02/24 02:05:17;;;;;;;12.20;3.53;;;;;;;5.70;100.00;101371.38;5232647;28;20043;-75
2023/02/24 02:07:49;;;;;;;11.40;3.40;;;;;;;5.74;100.00;101380.69;5231884;28;20017;-75
2023/02/24 02:10:22;;;;;;;16.50;3.63;;;;;;;5.74;100.00;101382.47;5229918;28;20549;-74
2023/02/24 02:12:54;;;;;;;16.08;3.90;;;;;;;5.78;100.00;101368.34;5234883;28;20057;-74
2023/02/24 02:15:30;;;;;;;13.85;3.63;;;;;;;5.79;100.00;101365.66;5236112;28;20559;-75
2023/02/24 02:18:30;;;;;;;13.32;3.65;;;;;;;6.06;100.00;101350.31;5235919;28;20029;-75
2023/02/24 02:21:29;;;;;;;13.45;3.42;;;;;;;5.92;100.00;101354.59;5221882;28;20030;-75
2023/02/24 02:24:25;;;;;;;14.18;4.20;;;;;;;5.99;100.00;101341.19;5235737;28;20104;-75
2023/02/24 02:27:13;;;;;;;13.40;3.47;;;;;;;5.86;100.00;101342.75;5234603;28;20013;-75
2023/02/24 02:30:12;;;;;;;16.50;4.10;;;;;;;6.03;100.00;101336.63;5214803;28;20065;-74
2023/02/24 02:33:20;;;;;;;10.68;3.38;;;;;;;6.03;100.00;101331.44;5230394;28;20778;-74
2023/02/24 02:36:32;;;;;;;11.32;3.40;;;;;;;5.98;100.00;101334.28;5231458;28;20415;-75
2023/02/24 02:39:10;;;;;;;24.88;3.53;;;;;;;5.94;100.00;101334.53;5218189;28;20399;-74
2023/02/24 02:41:53;;;;;;;14.68;3.40;;;;;;;5.99;100.00;101330.78;5233207;28;20472;-74
2023/02/24 02:44:39;;;;;;;13.00;3.33;;;;;;;5.92;100.00;101318.19;5232159;28;20029;-74
2023/02/24 02:47:24;;;;;;;12.15;3.80;;;;;;;5.93;100.00;101323.31;5231339;28;20086;-74
2023/02/24 02:50:18;;;;;;;13.20;3.78;;;;;;;6.05;100.00;101313.97;5230399;28;20024;-75
2023/02/24 02:52:59;;;;;;;13.60;3.88;;;;;;;5.91;100.00;101316.47;5219978;28;20041;-75
2023/02/24 02:55:50;;;;;;;11.70;3.25;;;;;;;5.97;100.00;101306.59;5230945;28;20096;-74
2023/02/24 02:58:29;;;;;;;18.67;3.72;;;;;;;5.79;100.00;101297.22;5234375;28;20036;-74
2023/02/24 03:01:05;;;;;;;11.82;4.13;;;;;;;5.74;100.00;101302.69;5233511;28;20018;-74
2023/02/24 03:03:45;;;;;;;9.85;3.25;;;;;;;5.74;100.00;101307.91;5233450;28;20063;-75
2023/02/24 03:06:27;;;;;;;9.50;3.22;;;;;;;5.79;100.00;101302.44;5233061;28;20091;-75
2023/02/24 03:09:10;;;;;;;19.48;4.22;;;;;;;5.69;100.00;101303.91;5211599;28;20087;-75
2023/02/24 03:11:47;;;;;;;15.00;3.75;;;;;;;5.65;100.00;101303.22;5231878;28;20021;-74
2023/02/24 03:14:24;;;;;;;13.05;2.83;;;;;;;5.66;100.00;101301.47;5227273;28;20112;-74
2023/02/24 03:16:58;;;;;;;13.82;4.13;;;;;;;5.60;100.00;101293.06;5233799;28;20013;-75
2023/02/24 03:19:36;;;;;;;14.55;3.72;;;;;;;5.66;100.00;101283.28;5233232;28;20045;-74
2023/02/24 03:22:20;;;;;;;12.40;3.17;;;;;;;5.72;100.00;101283.78;5227239;28;20056;-75
2023/02/24 03:24:52;;;;;;;10.40;2.92;;;;;;;5.53;100.00;101290.91;5232636;28;20537;-75
2023/02/24 03:27:48;;;;;;;12.52;3.50;;;;;;;5.83;100.00;101290.91;5231164;28;20117;-75
2023/02/24 03:30:26;;;;;;;12.13;3.53;;;;;;;5.50;100.00;101283.31;5210522;28;20033;-75
2023/02/24 03:33:08;;;;;;;13.30;3.50;;;;;;;5.57;100.00;101282.88;5231456;28;20025;-75
2023/02/24 03:35:43;;;;;;;9.98;2.72;;;;;;;5.31;100.00;101276.53;5228397;28;20112;-75
2023/02/24 03:38:14;;;;;;;11.75;3.10;;;;;;;5.28;100.00;101278.47;5212393;28;20065;-75
2023/02/24 03:40:46;;;;;;;11.70;3.58;;;;;;;5.26;100.00;101277.72;5230481;28;20513;-75
2023/02/24 03:43:26;;;;;;;13.63;3.55;;;;;;;5.34;100.00;101271.19;5232075;28;20067;-75
2023/02/24 03:45:59;;;;;;;9.75;3.22;;;;;;;5.16;100.00;101268.78;5229253;28;20091;-75
2023/02/24 03:48:33;;;;;;;11.68;2.90;;;;;;;5.17;100.00;101260.88;5211719;28;20057;-75
2023/02/24 03:51:04;;;;;;;11.57;3.20;;;;;;;5.10;100.00;101255.19;5228264;28;20041;-75
2023/02/24 03:54:04;;;;;;;14.77;3.38;;;;;;;5.27;100.00;101251.66;5229193;28;20046;-75
2023/02/24 03:57:01;;;;;;;14.75;3.17;;;;;;;5.27;100.00;101256.03;5228795;28;20045;-75
2023/02/24 03:59:48;;;;;;;11.57;3.25;;;;;;;5.10;100.00;101252.59;5231540;28;20032;-74
2023/02/24 04:02:23;;;;;;;8.77;3.10;;;;;;;4.94;100.00;101249.16;5233671;28;20022;-74
2023/02/24 04:05:08;;;;;;;11.15;3.03;;;;;;;4.99;100.00;101251.50;5233574;28;20108;-74
2023/02/24 04:07:52;;;;;;;12.68;3.28;;;;;;;4.93;100.00;101238.88;5215482;28;20398;-74
2023/02/24 04:10:58;;;;;;;11.75;2.47;;;;;;;5.00;100.00;101246.25;5230717;28;20044;-75
2023/02/24 04:13:37;;;;;;;10.55;2.90;;;;;;;4.82;100.00;101232.50;5218794;28;20049;-75
2023/02/24 04:16:35;;;;;;;9.73;3.20;;;;;;;4.99;100.00;101233.34;5234172;28;20104;-74
2023/02/24 04:19:16;;;;;;;12.13;3.53;;;;;;;4.79;100.00;101231.84;5231400;28;20036;-75
2023/02/24 04:21:49;;;;;;;11.25;2.92;;;;;;;4.69;100.00;101231.47;5232201;28;20031;-75
2023/02/24 04:24:26;;;;;;;10.63;2.40;;;;;;;4.70;100.00;101222.78;5234203;28;20033;-75
2023/02/24 04:27:03;;;;;;;11.65;2.90;;;;;;;4.75;100.00;101231.16;5236259;28;20048;-74
2023/02/24 04:29:39;;;;;;;11.40;2.63;;;;;;;4.77;100.00;101224.13;5231918;28;20027;-75
2023/02/24 04:32:14;;;;;;;10.48;3.30;;;;;;;4.73;100.00;101225.19;5233515;28;20048;-75
2023/02/24 04:34:45;;;;;;;12.52;3.13;;;;;;;4.73;100.00;101219.19;5234725;28;20036;-75
2023/02/24 04:37:21;;;;;;;9.60;3.55;;;;;;;4.77;100.00;101220.69;5231656;28;20317;-75
2023/02/24 04:39:53;;;;;;;9.85;3.67;;;;;;;4.74;100.00;101206.13;5234419;28;20029;-74
2023/02/24 04:42:25;;;;;;;9.55;2.38;;;;;;;4.83;100.00;101217.75;5235545;28;20037;-75
2023/02/24 04:44:57;;;;;;;8.70;3.00;;;;;;;4.82;100.00;101221.28;5215203;28;20034;-75
2023/02/24 04:47:28;;;;;;;10.95;2.85;;;;;;;4.80;100.00;101220.53;5230847;28;20037;-74
2023/02/24 04:49:59;;;;;;;9.48;2.95;;;;;;;4.82;100.00;101214.34;5235697;28;20048;-75
2023/02/24 04:52:31;;;;;;;13.18;3.33;;;;;;;4.82;100.00;101213.50;5234558;28;20049;-75
2023/02/24 04:55:08;;;;;;;10.10;3.20;;;;;;;4.82;100.00;101206.53;5233123;28;20044;-75
2023/02/24 04:57:40;;;;;;;15.20;3.00;;;;;;;4.87;100.00;101212.31;5234227;28;20056;-75
2023/02/24 05:00:22;;;;;;;9.40;2.85;;;;;;;4.86;100.00;101204.63;5235926;28;20053;-74
2023/02/24 05:02:55;;;;;;;13.80;3.55;;;;;;;4.91;100.00;101205.19;5235103;28;20021;-74
2023/02/24 05:05:27;;;;;;;11.88;3.70;;;;;;;4.92;100.00;101201.66;5233144;28;20029;-75
2023/02/24 05:08:07;;;;;;;11.75;3.03;;;;;;;4.96;100.00;101210.97;5230935;28;20051;-75
2023/02/24 05:10:44;;;;;;;14.02;3.33;;;;;;;4.96;100.00;101197.97;5233166;28;20517;-75
2023/02/24 05:13:26;;;;;;;9.35;3.17;;;;;;;5.00;100.00;101193.44;5215270;28;20124;-75
2023/02/24 05:16:06;;;;;;;16.20;3.88;;;;;;;5.13;100.00;101184.91;5229527;28;20021;-75
2023/02/24 05:18:39;;;;;;;16.83;3.58;;;;;;;4.95;100.00;101170.34;5232702;28;20041;-75
2023/02/24 05:21:34;;;;;;;14.30;3.58;;;;;;;5.04;100.00;101166.41;5234755;28;20124;-74
2023/02/24 05:24:05;;;;;;;15.90;2.80;;;;;;;4.94;100.00;101163.50;5224600;28;20034;-74
2023/02/24 05:26:40;;;;;;;9.05;3.10;;;;;;;4.93;100.00;101159.22;5234754;28;20033;-75
2023/02/24 05:29:12;;;;;;;14.73;3.45;;;;;;;4.87;100.00;101152.59;5231023;28;20107;-75
2023/02/24 05:31:43;;;;;;;13.10;2.78;;;;;;;4.86;100.00;101152.69;5234854;28;20033;-75
2023/02/24 05:34:16;;;;;;;10.50;3.33;;;;;;;4.79;100.00;101143.59;5212521;28;20486;-74
2023/02/24 05:36:47;;;;;;;17.02;4.20;;;;;;;4.95;100.00;101156.53;5230335;28;20088;-75
2023/02/24 05:39:20;;;;;;;11.82;2.92;;;;;;;4.83;100.00;101145.91;5216153;28;20462;-75
2023/02/24 05:41:53;;;;;;;12.57;3.13;;;;;;;4.83;100.00;101140.72;5234881;28;20033;-75
2023/02/24 05:44:25;;;;;;;;;;;;;;;5.46;100.00;101141.50;5231875;28;20063;-75
2023/02/24 05:46:57;;;;;;;12.52;3.28;;;;;;;4.85;100.00;101149.28;5234641;28;19920;-75
2023/02/24 05:49:34;;;;;;;14.35;4.40;;;;;;;4.87;100.00;101154.38;5214492;28;20029;-75
2023/02/24 05:52:07;;;;;;;18.23;3.58;;;;;;;4.73;100.00;101123.97;5229406;28;20049;-74
2023/02/24 05:54:41;;;;;;;14.02;3.55;;;;;;;4.79;100.00;101131.44;5231877;28;20112;-74
2023/02/24 05:57:16;;;;;;;;;;;;;;;5.48;100.00;101142.22;5232665;28;20116;-75
2023/02/24 05:59:52;;;;;;;13.35;3.33;;;;;;;4.90;100.00;101125.66;5233750;28;19917;-74
2023/02/24 06:02:26;;;;;;;15.63;3.17;;;;;;;4.77;100.00;101117.72;5213058;28;20025;-75
2023/02/24 06:04:59;;;;;;;10.85;3.42;;;;;;;4.79;100.00;101115.84;5236976;22;20053;-71
2023/02/24 06:07:34;;;;;;;10.60;2.92;;;;;;;4.75;100.00;101116.13;5214741;28;20025;-71
2023/02/24 06:10:09;;;;;;;12.90;2.72;;;;;;;4.74;100.00;101111.88;5229597;28;20458;-72
2023/02/24 06:12:40;;;;;;;10.15;3.03;;;;;;;4.76;100.00;101110.84;5226940;28;20048;-72
2023/02/24 06:15:11;;;;;;;11.45;3.42;;;;;;;4.71;100.00;101101.66;5228416;28;20068;-71
2023/02/24 06:17:43;;;;;;;15.88;3.92;;;;;;;4.71;100.00;101096.47;5232223;28;20519;-72
2023/02/24 06:20:15;;;;;;;14.82;3.10;;;;;;;4.68;100.00;101096.63;5230994;28;21203;-72
2023/02/24 06:22:47;;;;;;;10.73;2.95;;;;;;;4.67;100.00;101102.75;5225464;28;20551;-73
2023/02/24 06:25:24;;;;;;;9.43;2.72;;;;;;;4.77;100.00;101094.34;5220485;28;20037;-72
2023/02/24 06:27:55;;;;;;;12.25;3.58;;;;;;;4.60;100.00;101095.28;5229911;28;20057;-70
2023/02/24 06:30:26;;;;;;;15.88;3.10;;;;;;;4.63;100.00;101092.53;5234672;28;20096;-70
2023/02/24 06:32:58;;;;;;;12.30;3.30;;;;;;;4.68;100.00;101083.66;5230004;28;20041;-70
2023/02/24 06:35:31;;;;;;;21.17;3.40;;;;;;;4.62;100.00;101079.63;5218933;28;20044;-70
2023/02/24 06:38:03;;;;;;;11.80;2.95;;;;;;;4.59;100.00;101067.69;5230133;28;20073;-70
2023/02/24 06:40:36;;;;;;;14.00;3.20;;;;;;;4.57;100.00;101064.31;5232457;28;20059;-70
2023/02/24 06:43:08;;;;;;;11.95;3.08;;;;;;;4.57;100.00;101072.09;5233616;28;20033;-70
2023/02/24 06:45:39;;;;;;;10.98;2.83;;;;;;;4.52;100.00;101055.13;5233465;28;20032;-70
2023/02/24 06:48:10;;;;;;;13.55;3.65;;;;;;;4.44;100.00;101049.53;5234082;28;20032;-70
2023/02/24 06:50:42;;;;;;;9.88;3.00;;;;;;;4.51;100.00;101062.09;5232798;28;20033;-70
2023/02/24 06:53:15;;;;;;;10.98;3.00;;;;;;;4.52;100.00;101061.16;5234166;28;20064;-70
2023/02/24 06:55:47;;;;;;;15.52;3.30;;;;;;;4.55;100.00;101063.59;5232524;28;20021;-70
2023/02/24 06:58:19;;;;;;;12.80;2.67;;;;;;;4.54;100.00;101050.69;5233156;28;20037;-70
2023/02/24 07:00:57;;;;;;;11.70;2.67;;;;;;;4.53;100.00;101044.66;5214791;28;20025;-70
2023/02/24 07:03:46;;;;;;;9.07;2.95;;;;;;;4.52;100.00;101050.78;5233861;28;20037;-70
2023/02/24 07:06:22;;;;;;;11.60;3.72;;;;;;;4.54;100.00;101056.69;5214830;28;20467;-70
2023/02/24 07:08:56;;;;;;;11.45;2.40;;;;;;;4.61;100.00;101050.25;5232867;28;20037;-69
2023/02/24 07:11:28;;;;;;;12.00;2.80;;;;;;;4.57;100.00;101042.72;5231014;28;20123;-70
2023/02/24 07:13:59;;;;;;;14.05;2.60;;;;;;;4.56;100.00;101043.66;5230615;28;20141;-70
2023/02/24 07:16:33;;;;;;;9.70;2.95;;;;;;;4.58;100.00;101044.41;5233261;28;20021;-70
2023/02/24 07:19:10;;;;;;;13.20;3.15;;;;;;;4.59;100.00;101040.91;5234134;28;20049;-69
2023/02/24 07:21:48;;;;;;;12.57;2.80;;;;;;;4.58;100.00;101034.88;5234629;28;20096;-70
2023/02/24 07:24:24;;;;;;;12.18;2.78;;;;;;;4.59;100.00;101018.38;5231059;28;20394;-70
2023/02/24 07:26:57;;;;;;;11.75;2.95;;;;;;;4.64;100.00;101015.50;5233487;28;20025;-70
2023/02/24 07:29:31;;;;;;;14.95;3.20;;;;;;;4.63;100.00;101019.03;5231650;28;20132;-69
2023/02/24 07:32:05;;;;;;;13.60;2.60;;;;;;;4.71;100.00;101018.59;5234033;28;20837;-70
2023/02/24 07:34:39;;;;;;;14.02;2.92;;;;;;;4.66;100.00;101018.00;5232414;28;20036;-73
2023/02/24 07:37:11;;;;;;;19.85;2.63;;;;;;;4.70;100.00;101022.09;5234248;28;20295;-70
2023/02/24 07:39:42;;;;;;;13.73;2.55;;;;;;;4.71;100.00;101028.97;5229241;28;20030;-70
2023/02/24 07:42:13;;;;;;;11.95;2.60;;;;;;;4.75;100.00;101022.69;5211769;28;20538;-70
2023/02/24 07:44:47;;;;;;;11.13;3.10;;;;;;;4.76;100.00;101027.78;5222443;28;20017;-70
2023/02/24 07:47:20;;;;;;;13.50;2.45;;;;;;;4.77;100.00;101026.00;5228718;28;20029;-70
2023/02/24 07:49:51;;;;;;;12.10;2.73;;;;;;;4.84;100.00;101022.16;5229098;28;20078;-69
2023/02/24 07:52:22;;;;;;;9.88;2.53;;;;;;;4.84;100.00;101007.41;5230714;28;20029;-70
2023/02/24 07:54:54;;;;;;;10.05;2.33;;;;;;;4.92;100.00;101019.09;5231827;28;20017;-70
2023/02/24 07:57:25;;;;;;;10.35;2.22;;;;;;;4.93;100.00;101005.22;5231173;28;20029;-71
2023/02/24 07:59:57;;;;;;;14.35;3.15;;;;;;;5.01;100.00;101003.00;5230630;28;20013;-70
2023/02/24 08:02:30;;;;;;;9.95;1.85;;;;;;;5.04;100.00;100995.88;5235610;28;20029;-71
2023/02/24 08:05:01;;;;;;;10.15;2.20;;;;;;;5.08;100.00;100994.75;5233749;28;20041;-71
2023/02/24 08:07:32;;;;;;;11.55;3.10;;;;;;;5.07;100.00;100990.47;5233101;28;20039;-71
2023/02/24 08:12:42;;;;;;;12.80;3.13;;;;;;;5.12;100.00;100975.47;5234157;28;20068;-72
2023/02/24 08:15:16;;;;;;;9.88;2.40;;;;;;;5.23;100.00;100976.59;5231668;28;20042;-71
2023/02/24 08:17:47;;;;;;;9.52;2.15;;;;;;;5.24;100.00;100965.28;5232356;28;20030;-71
2023/02/24 08:20:20;;;;;;;13.43;2.58;;;;;;;5.30;100.00;100957.09;5234024;28;20075;-71
2023/02/24 08:22:52;;;;;;;;;;;;;;;5.86;100.00;100952.72;5235160;28;20495;-71
2023/02/24 08:25:34;;;;;;;14.32;2.20;;;;;;;5.42;100.00;100956.34;5234244;28;20278;-71
2023/02/24 08:28:10;;;;;;;12.70;2.58;;;;;;;5.40;100.00;100965.16;5231797;28;20157;-71
2023/02/24 08:30:45;;;;;;;10.82;2.10;;;;;;;5.44;100.00;100959.69;5233605;28;20035;-71
2023/02/24 08:33:20;;;;;;;10.25;2.20;;;;;;;5.49;100.00;100960.25;5232679;28;20331;-71
2023/02/24 08:35:59;;;;;;;9.77;2.08;;;;;;;5.56;100.00;100956.31;5236106;28;20029;-71
2023/02/24 08:38:40;;;;;;;15.30;2.15;;;;;;;5.64;100.00;100944.63;5232191;28;20025;-71
2023/02/24 08:41:19;;;;;;;10.85;2.45;;;;;;;5.70;100.00;100945.06;5231975;28;20017;-71
2023/02/24 08:43:50;;;;;;;10.43;2.17;;;;;;;5.70;100.00;100932.06;5232968;28;20029;-71
2023/02/24 08:46:31;;;;;;;15.30;3.17;;;;;;;5.77;100.00;100942.94;5234905;28;20075;-70
2023/02/24 08:49:09;;;;;;;11.23;2.25;;;;;;;5.80;100.00;100937.53;5235739;28;20059;-71
2023/02/24 08:51:42;;;;;;;8.60;2.10;;;;;;;5.91;100.00;100936.84;5232462;28;20044;-70
2023/02/24 08:54:25;;;;;;;16.88;2.60;;;;;;;6.07;100.00;100942.78;5236062;28;20072;-72
2023/02/24 08:57:06;;;;;;;13.50;2.63;;;;;;;6.05;100.00;100936.81;5233080;28;20033;-71
2023/02/24 08:59:39;;;;;;;11.68;2.22;;;;;;;6.04;100.00;100925.59;5231538;28;20032;-70
2023/02/24 09:02:18;;;;;;;9.50;2.65;;;;;;;6.20;100.00;100922.81;5232381;28;20501;-71
2023/02/24 09:04:55;;;;;;;8.75;1.90;;;;;;;6.23;100.00;100911.41;5230208;28;20247;-71
2023/02/24 09:07:35;;;;;;;9.18;2.42;;;;;;;6.25;100.00;100896.50;5235593;28;20033;-72
2023/02/24 09:10:16;;;;;;;8.60;2.03;;;;;;;6.30;100.00;100890.06;5234343;28;20031;-71
2023/02/24 09:12:48;;;;;;;14.30;2.63;;;;;;;6.19;100.00;100892.56;5232227;28;20030;-71
2023/02/24 09:15:21;;;;;;;9.77;2.55;;;;;;;6.21;100.00;100893.28;5231947;28;20025;-71
2023/02/24 09:18:05;;;;;;;10.65;3.38;;;;;;;6.30;100.00;100892.69;5231910;28;20099;-72
2023/02/24 09:20:55;;;;;;;14.55;3.03;;;;;;;6.28;100.00;100883.28;5232345;28;20521;-71
2023/02/24 09:23:29;;;;;;;12.05;2.65;;;;;;;6.28;100.00;100872.88;5235066;28;20036;-72
2023/02/24 09:26:09;;;;;;;13.10;3.08;;;;;;;6.42;100.00;100861.56;5232301;28;20029;-72
2023/02/24 09:28:56;;;;;;;11.57;2.97;;;;;;;6.42;100.00;100848.56;5234671;28;20505;-71
2023/02/24 09:31:39;;;;;;;8.75;2.60;;;;;;;6.56;100.00;100854.50;5230166;28;20108;-71
2023/02/24 09:34:17;;;;;;;10.32;2.85;;;;;;;6.58;100.00;100851.78;5214847;28;20037;-72
2023/02/24 09:37:01;;;;;;;8.70;2.22;;;;;;;6.64;100.00;100847.94;5232229;28;20056;-72
2023/02/24 09:42:33;;;;;;;14.27;3.15;;;;;;;6.87;100.00;100838.56;5233417;28;20037;-72
2023/02/24 09:45:10;;;;;;;11.25;2.60;;;;;;;6.86;100.00;100847.28;5233734;28;20148;-71
2023/02/24 09:50:44;;;;;;;16.08;2.80;;;;;;;7.03;100.00;100836.53;5230090;28;20036;-71
2023/02/24 09:53:17;;;;;;;11.10;2.15;;;;;;;6.89;100.00;100834.06;5228636;28;20037;-72
2023/02/24 09:56:04;;;;;;;12.30;3.22;;;;;;;7.02;100.00;100829.66;5229751;28;20030;-72
2023/02/24 09:58:48;;;;;;;15.80;3.03;;;;;;;7.04;100.00;100827.78;5231003;28;20540;-71
2023/02/24 10:01:41;;;;;;;8.48;2.53;;;;;;;6.94;100.00;100822.41;5233142;28;20025;-72
2023/02/24 10:04:47;;;;;;;10.40;2.90;;;;;;;6.95;100.00;100818.00;5233326;28;20037;-71
2023/02/24 10:07:28;;;;;;;12.00;2.97;;;;;;;7.12;100.00;100819.41;5227907;28;20114;-71
2023/02/24 10:10:19;;;;;;;13.13;2.97;;;;;;;7.28;100.00;100817.41;5231451;28;20105;-71
2023/02/24 10:13:15;;;;;;;11.05;2.95;;;;;;;7.42;100.00;100819.84;5231557;28;20108;-72
2023/02/24 10:19:13;;;;;;;19.13;3.45;;;;;;;7.35;100.00;100816.03;5230701;28;20044;-71
2023/02/24 10:22:26;;;;;;;12.38;3.70;;;;;;;7.40;100.00;100807.88;5209755;28;20026;-71
2023/02/24 10:25:11;;;;;;;10.23;2.50;;;;;;;7.19;100.00;100808.44;5229347;28;20026;-72
2023/02/24 10:28:01;;;;;;;11.68;3.00;;;;;;;7.26;100.00;100809.69;5227278;28;20034;-72
2023/02/24 10:30:46;;;;;;;10.48;3.00;;;;;;;7.36;100.00;100804.66;5233559;28;20039;-71
2023/02/24 10:33:29;;;;;;;12.68;3.10;;;;;;;7.41;100.00;100799.09;5231217;28;20037;-72
2023/02/24 10:36:15;;;;;;;11.40;2.42;;;;;;;7.39;100.00;100795.78;5232462;28;20025;-72
2023/02/24 10:38:49;;;;;;;14.43;2.80;;;;;;;7.32;100.00;100791.00;5232736;28;20032;-72
2023/02/24 10:41:27;;;;;;;10.57;3.05;;;;;;;7.36;100.00;100796.84;5228735;28;20351;-71
2023/02/24 10:43:58;;;;;;;14.85;2.90;;;;;;;7.34;100.00;100795.28;5230793;28;20033;-72
2023/02/24 10:46:34;;;;;;;8.63;3.08;;;;;;;7.40;100.00;100789.63;5232605;28;20021;-71
2023/02/24 10:49:10;;;;;;;11.77;3.17;;;;;;;7.46;100.00;100789.16;5233936;28;20033;-72
2023/02/24 10:51:47;;;;;;;12.40;3.40;;;;;;;7.55;100.00;100784.13;5228553;28;20044;-72
2023/02/24 10:54:53;;;;;;;12.02;3.47;;;;;;;7.61;100.00;100777.63;5233430;28;20072;-71
2023/02/24 10:57:37;;;;;;;11.88;3.72;;;;;;;7.65;100.00;100778.22;5226967;28;20067;-72
2023/02/24 11:03:05;;;;;;;9.70;3.17;;;;;;;7.76;100.00;100771.28;5230724;28;20110;-72
2023/02/24 11:06:05;;;;;;;12.40;3.55;;;;;;;7.81;100.00;100760.53;5229011;28;20418;-71
2023/02/24 11:08:42;;;;;;;12.20;3.33;;;;;;;7.67;100.00;100760.72;5226934;28;20135;-72
2023/02/24 11:11:24;;;;;;;7.97;3.50;;;;;;;7.79;100.00;100765.84;5226437;28;20025;-72
2023/02/24 11:17:18;;;;;;;13.02;3.92;;;;;;;8.02;100.00;100745.84;5176323;28;20121;-71
2023/02/24 11:19:57;;;;;;;14.60;3.90;;;;;;;7.93;100.00;100743.13;5225262;28;20037;-70
2023/02/24 11:22:35;;;;;;;11.70;4.13;;;;;;;8.05;100.00;100737.78;5228459;28;20045;-71
2023/02/24 11:25:23;;;;;;;10.50;3.47;;;;;;;8.00;100.00;100733.88;5226615;28;20014;-72
2023/02/24 11:27:55;;;;;;;10.90;3.75;;;;;;;7.86;100.00;100732.31;5226028;28;20044;-71
2023/02/24 11:30:29;;;;;;;10.90;4.03;;;;;;;7.83;100.00;100719.50;5228494;28;20010;-71
2023/02/24 11:33:21;;;;;;;10.02;3.60;;;;;;;7.73;100.00;100718.53;5227081;28;20033;-72
2023/02/24 11:36:24;;;;;;;7.70;3.28;;;;;;;8.07;100.00;100705.53;5234079;28;20537;-72
2023/02/24 11:39:15;;;;;;;8.75;4.18;;;;;;;7.97;100.00;100708.03;5173645;28;20080;-72
2023/02/24 11:41:51;;;;;;;13.00;5.10;;;;;;;7.97;100.00;100703.63;5227772;28;20085;-72
2023/02/24 11:44:33;;;;;;;9.98;3.95;;;;;;;8.04;100.00;100707.44;5233357;28;20036;-71
2023/02/24 11:47:10;;;;;;;15.80;4.57;;;;;;;8.03;100.00;100697.09;5215773;28;20486;-72
2023/02/24 11:49:52;;;;;;;9.98;4.00;;;;;;;8.08;100.00;100692.38;5232504;28;20030;-72
2023/02/24 11:52:32;;;;;;;12.40;4.15;;;;;;;7.87;100.00;100691.41;5229306;28;20479;-71
2023/02/24 11:55:13;;;;;;;11.55;4.63;;;;;;;7.87;100.00;100694.84;5231670;28;20163;-71
2023/02/24 11:57:50;;;;;;;15.80;5.20;;;;;;;7.88;100.00;100691.31;5227316;28;20018;-72
2023/02/24 12:00:29;;;;;;;13.80;4.28;;;;;;;7.96;100.00;100693.34;5230965;28;20079;-72
2023/02/24 12:03:24;;;;;;;13.68;4.28;;;;;;;8.07;100.00;100692.47;5232046;28;20099;-72
2023/02/24 12:06:08;;;;;;;11.05;4.30;;;;;;;7.95;100.00;100681.22;5209630;28;20050;-71
2023/02/24 12:08:44;;;;;;;13.38;4.00;;;;;;;7.84;100.00;100684.66;5208676;28;20521;-71
2023/02/24 12:11:32;;;;;;;12.73;4.22;;;;;;;7.88;100.00;100672.19;5208591;28;20029;-71
2023/02/24 12:14:23;;;;;;;14.50;4.47;;;;;;;7.91;100.00;100666.75;5206388;28;20038;-71
2023/02/24 12:17:16;;;;;;;13.07;4.50;;;;;;;7.85;100.00;100670.66;5207479;28;20091;-72
2023/02/24 12:19:58;;;;;;;10.07;4.20;;;;;;;7.79;100.00;100668.50;5265951;22;20049;-76
2023/02/24 12:22:43;;;;;;;12.15;4.75;;;;;;;7.70;100.00;100669.22;5259315;28;20067;-76
2023/02/24 12:25:18;;;;;;;14.77;4.40;;;;;;;7.44;100.00;100653.75;5244032;28;20016;-76
2023/02/24 12:28:10;;;;;;;15.82;4.78;;;;;;;7.59;100.00;100650.94;5257903;28;20035;-76
2023/02/24 12:30:59;;;;;;;14.15;4.85;;;;;;;7.70;100.00;100641.38;5265735;28;20102;-76